Decoded Metar for KSMO (SANTA MONICA in CA, USA) (IATA:SMO) | Meteo·Mobile Aviation Weather
aviador You're here:

KSMO Decoded Metar

SANTA MONICA in CA, USA
Report Time2018-09-21 08:51:00
UTC Time2018-09-21 09:47:08
Flight Rules mvfr MVFR
Wind120° at 04 kt
W.Decomp.*RWY 03: 1.0 kt HW 3.9 kt RCW
W.Rank120° ranks 25
Current wind is below 120° avg. (4.3)
Visibility9999 m
Phenomena:N/A
Clouds:Overcast 014 Hf
Expected CloudBase > 2,000 ft AGL from Temp-Dew spread
Ceiling1,400 ft
Temp21°C (ISA +6)
Dew Point16°C (73% RH)
QNH1014 hPa
Density Alt1,138 ft
Elevation187 ft
Report Wrong Elevation
Raw Report
KSMO 210851Z AUTO 12004KT 10SM OVC014 21/16 A2994 RMK AO2 SLP137
T02110156 50000=

Extra information for KSMO:More info

Metar Taf Metar & Taf Last 4 Metars F.Rules Stats Wind Profile Meteogram Temp Stats Airport Information Weather charts Add Link Nearby VenuesMetar ALERT Operation Metar Decoded Social comments

AIRNAV info for KSMO